createdAt,value
2019-02-23T00:00:31.012Z,0.00
2019-02-23T00:01:31.007Z,0.00
2019-02-23T00:02:31.014Z,0.00
2019-02-23T00:03:31.014Z,0.00
2019-02-23T00:04:31.012Z,0.00
2019-02-23T00:05:31.025Z,0.00
2019-02-23T00:06:31.029Z,0.00
2019-02-23T00:07:31.083Z,0.00
2019-02-23T00:08:31.039Z,0.00
2019-02-23T00:09:31.033Z,0.00
2019-02-23T00:10:31.044Z,0.00
2019-02-23T00:11:31.045Z,0.00
2019-02-23T00:12:31.043Z,0.00
2019-02-23T00:13:31.046Z,0.00
2019-02-23T00:14:31.050Z,0.00
2019-02-23T00:15:31.057Z,0.00
2019-02-23T00:16:31.068Z,0.00
2019-02-23T00:17:31.065Z,0.00
2019-02-23T00:18:31.067Z,0.00
2019-02-23T00:19:31.070Z,0.00
2019-02-23T00:20:31.071Z,0.00
2019-02-23T00:21:31.074Z,0.00
2019-02-23T00:22:31.087Z,0.00
2019-02-23T00:23:31.087Z,0.00
2019-02-23T00:24:31.089Z,0.00
2019-02-23T00:25:31.088Z,4.00
2019-02-23T00:26:31.095Z,0.00
2019-02-23T00:27:31.098Z,0.00
2019-02-23T00:28:31.093Z,0.00
2019-02-23T00:29:31.104Z,0.00
2019-02-23T00:30:31.108Z,0.00
2019-02-23T00:31:31.111Z,0.00
2019-02-23T00:32:31.114Z,0.00
2019-02-23T00:33:31.126Z,0.00
2019-02-23T00:34:31.119Z,0.00
2019-02-23T00:35:31.125Z,0.00
2019-02-23T00:36:31.130Z,0.00
2019-02-23T00:37:31.129Z,0.00
2019-02-23T00:38:31.135Z,0.00
2019-02-23T00:39:31.135Z,0.00
2019-02-23T00:40:31.146Z,0.00
2019-02-23T00:41:31.149Z,0.00
2019-02-23T00:42:31.151Z,0.00
2019-02-23T00:43:31.152Z,0.00
2019-02-23T00:44:31.151Z,0.00
2019-02-23T00:45:31.202Z,0.00
2019-02-23T00:46:31.155Z,0.00
2019-02-23T00:47:31.157Z,0.00
2019-02-23T00:48:31.159Z,0.00
2019-02-23T00:49:36.192Z,0.00
2019-02-23T00:50:31.171Z,0.00
2019-02-23T00:51:31.169Z,0.00
2019-02-23T00:52:31.176Z,0.00
2019-02-23T00:53:31.170Z,0.00
2019-02-23T00:54:31.181Z,0.00
2019-02-23T00:55:31.183Z,0.00
2019-02-23T00:56:31.190Z,0.00
2019-02-23T00:57:31.192Z,0.00
2019-02-23T00:58:31.198Z,0.00
2019-02-23T00:59:31.201Z,0.00
2019-02-23T01:00:31.202Z,0.00
2019-02-23T01:01:31.207Z,0.00
2019-02-23T01:02:31.203Z,0.00
2019-02-23T01:03:31.212Z,0.00
2019-02-23T01:04:31.228Z,0.00
2019-02-23T01:05:31.218Z,0.00
2019-02-23T01:06:31.220Z,0.00
2019-02-23T01:07:31.226Z,0.00
2019-02-23T01:08:31.228Z,0.00
2019-02-23T01:09:31.233Z,0.00
2019-02-23T01:10:31.232Z,0.00
2019-02-23T01:11:31.238Z,0.00
2019-02-23T01:12:31.244Z,0.00
2019-02-23T01:13:31.291Z,0.00
2019-02-23T01:14:31.319Z,0.00
2019-02-23T01:15:31.251Z,0.00
2019-02-23T01:16:31.255Z,0.00
2019-02-23T01:17:31.257Z,0.00
2019-02-23T01:18:31.264Z,0.00
2019-02-23T01:19:31.267Z,0.00
2019-02-23T01:20:31.268Z,0.00
2019-02-23T12:46:59.304Z,54464.00
2019-02-23T12:47:59.282Z,56768.00
2019-02-23T12:48:59.298Z,52064.00
2019-02-23T12:49:59.324Z,48512.00
2019-02-23T12:50:59.328Z,49408.00
2019-02-23T12:51:59.345Z,54560.00
2019-02-23T12:52:59.885Z,54432.00
2019-02-23T12:53:59.381Z,54560.00
2019-02-23T12:54:59.395Z,53568.00
2019-02-23T12:55:59.418Z,50848.00
2019-02-23T12:56:59.429Z,50784.00
2019-02-23T12:57:59.446Z,53664.00
2019-02-23T12:58:59.458Z,49760.00
2019-02-23T12:59:59.483Z,46592.00
2019-02-23T13:00:59.500Z,42336.00
2019-02-23T13:01:59.518Z,42880.00
2019-02-23T13:02:59.526Z,41760.00
2019-02-23T13:03:59.549Z,44896.00
2019-02-23T13:04:59.576Z,45408.00
2019-02-23T13:05:59.580Z,43680.00
2019-02-23T13:06:59.588Z,46784.00
2019-02-23T13:07:59.608Z,48096.00
2019-02-23T13:08:59.623Z,50528.00
2019-02-23T13:09:59.642Z,49056.00
2019-02-23T13:10:59.655Z,46080.00
2019-02-23T13:11:59.671Z,43584.00
2019-02-23T13:12:59.737Z,46464.00
2019-02-23T13:13:59.706Z,51616.00
2019-02-23T13:14:59.738Z,47520.00
2019-02-23T13:15:59.735Z,43872.00
2019-02-23T13:16:59.753Z,42496.00
2019-02-23T13:17:59.770Z,44832.00
2019-02-23T13:18:59.789Z,45024.00
2019-02-23T13:19:59.806Z,45056.00
2019-02-23T13:20:59.823Z,41984.00
2019-02-23T13:21:59.840Z,41376.00
2019-02-23T13:22:59.853Z,40672.00
2019-02-23T13:23:59.875Z,38752.00
2019-02-23T13:24:59.898Z,36544.00
2019-02-23T13:25:59.915Z,32224.00
2019-02-23T13:26:59.917Z,37152.00
2019-02-23T13:27:59.935Z,36896.00
2019-02-23T13:28:59.954Z,38304.00
2019-02-23T13:29:59.964Z,38176.00
2019-02-23T13:30:59.990Z,40384.00
2019-02-23T13:32:00.001Z,41888.00
2019-02-23T13:33:00.019Z,40544.00
2019-02-23T13:34:00.215Z,37088.00
2019-02-23T13:35:00.055Z,36032.00
2019-02-23T13:36:00.071Z,35232.00
2019-02-23T13:37:01.881Z,36800.00
2019-02-23T13:38:00.102Z,34944.00
2019-02-23T13:39:00.117Z,36928.00
2019-02-23T13:40:00.310Z,40352.00
2019-02-23T13:41:00.176Z,39968.00
2019-02-23T13:42:00.169Z,41376.00
2019-02-23T13:43:00.187Z,44352.00
2019-02-23T13:44:00.203Z,43936.00
2019-02-23T13:45:00.295Z,39232.00
2019-02-23T13:46:00.247Z,36608.00
2019-02-23T13:47:00.250Z,35264.00
2019-02-23T13:48:00.266Z,37568.00
2019-02-23T13:49:00.286Z,39616.00
2019-02-23T13:50:00.409Z,36416.00
2019-02-23T13:51:00.311Z,34368.00
2019-02-23T13:52:00.341Z,33600.00
2019-02-23T13:53:00.339Z,34528.00
2019-02-23T13:54:00.362Z,35712.00
2019-02-23T13:55:00.387Z,32896.00
2019-02-23T13:56:00.391Z,34656.00
2019-02-23T13:57:00.416Z,35424.00
2019-02-23T13:58:00.414Z,30976.00
2019-02-23T13:59:00.442Z,28480.00
2019-02-23T14:00:00.460Z,27328.00
2019-02-23T14:01:00.472Z,28160.00
2019-02-23T14:02:00.488Z,36032.00
2019-02-23T14:03:00.508Z,37600.00
2019-02-23T14:04:00.520Z,41920.00
2019-02-23T14:05:00.544Z,41792.00
2019-02-23T14:06:00.554Z,39456.00
2019-02-23T14:07:00.569Z,41376.00
2019-02-23T14:08:00.595Z,41248.00
2019-02-23T14:09:00.597Z,41856.00
2019-02-23T14:10:00.614Z,35968.00
2019-02-23T14:11:00.633Z,30432.00
2019-02-23T14:12:00.646Z,32704.00
2019-02-23T14:13:00.663Z,41728.00
2019-02-23T14:14:00.677Z,40288.00
2019-02-23T14:15:00.744Z,40832.00
2019-02-23T14:16:00.712Z,42976.00
2019-02-23T14:17:00.732Z,43712.00
2019-02-23T14:18:00.743Z,43104.00
2019-02-23T14:19:00.761Z,42720.00
2019-02-23T14:20:00.785Z,39488.00
2019-02-23T14:21:00.791Z,40800.00
2019-02-23T14:22:00.810Z,40704.00
2019-02-23T14:23:00.821Z,39520.00
2019-02-23T14:24:00.845Z,36224.00
2019-02-23T14:25:00.880Z,37504.00
2019-02-23T14:26:00.881Z,39488.00
2019-02-23T14:27:00.907Z,39200.00
2019-02-23T14:28:00.917Z,37792.00
2019-02-23T14:29:00.929Z,38688.00
2019-02-23T14:30:00.941Z,38848.00
2019-02-23T14:31:00.966Z,39104.00
2019-02-23T14:32:00.995Z,36928.00
2019-02-23T14:33:01.040Z,36448.00
2019-02-23T14:34:01.016Z,36992.00
2019-02-23T14:35:01.022Z,36000.00
2019-02-23T14:36:01.040Z,33504.00
2019-02-23T14:37:01.057Z,27808.00
2019-02-23T14:38:01.071Z,26496.00
2019-02-23T14:39:01.085Z,30432.00
2019-02-23T14:40:01.106Z,26144.00
2019-02-23T14:41:01.131Z,22816.00
2019-02-23T14:42:01.170Z,22720.00
2019-02-23T14:43:01.210Z,22848.00
2019-02-23T14:44:01.183Z,21984.00
2019-02-23T14:45:01.194Z,18272.00
2019-02-23T14:46:01.250Z,17184.00
2019-02-23T14:47:01.228Z,17856.00
2019-02-23T14:48:01.254Z,23520.00
2019-02-23T14:49:01.270Z,31328.00
2019-02-23T14:50:01.269Z,33984.00
2019-02-23T14:51:01.277Z,33280.00
2019-02-23T14:52:01.305Z,33760.00
2019-02-23T14:53:01.327Z,33088.00
2019-02-23T14:54:01.365Z,31872.00
2019-02-23T14:55:01.708Z,31584.00
2019-02-23T14:56:01.380Z,32480.00
2019-02-23T14:57:01.365Z,32192.00
2019-02-23T14:58:01.395Z,31264.00
2019-02-23T14:59:01.530Z,31648.00
2019-02-23T15:00:01.422Z,30752.00
2019-02-23T15:01:01.443Z,30752.00
2019-02-23T15:02:01.445Z,30784.00
2019-02-23T15:03:01.486Z,30848.00
2019-02-23T15:04:01.477Z,31360.00
2019-02-23T15:05:01.498Z,29568.00
2019-02-23T15:06:01.528Z,29536.00
2019-02-23T15:07:01.539Z,27392.00
2019-02-23T15:08:01.549Z,25696.00
2019-02-23T15:09:01.552Z,26432.00
2019-02-23T15:10:01.575Z,25472.00
2019-02-23T15:11:01.591Z,25888.00
2019-02-23T15:12:01.615Z,25056.00
2019-02-23T15:13:01.624Z,26080.00
2019-02-23T15:14:01.638Z,26016.00
2019-02-23T15:15:01.666Z,25568.00
2019-02-23T15:16:01.672Z,26848.00
2019-02-23T15:17:01.708Z,26048.00
2019-02-23T15:18:01.704Z,24704.00
2019-02-23T15:19:01.725Z,24992.00
2019-02-23T15:20:01.734Z,24000.00
2019-02-23T15:21:01.764Z,23584.00
2019-02-23T15:22:01.766Z,23584.00
2019-02-23T15:23:01.790Z,22848.00
2019-02-23T15:24:01.802Z,22816.00
2019-02-23T15:25:12.463Z,22976.00
2019-02-23T15:26:01.835Z,22592.00
2019-02-23T15:28:01.872Z,20960.00
2019-02-23T15:29:01.877Z,20032.00
2019-02-23T15:30:01.893Z,18784.00
2019-02-23T15:31:01.909Z,17888.00
2019-02-23T15:32:01.928Z,16864.00
2019-02-23T15:33:01.939Z,16800.00
2019-02-23T15:34:01.962Z,16512.00
2019-02-23T15:35:01.971Z,16288.00
2019-02-23T15:36:01.990Z,15584.00
2019-02-23T15:37:02.000Z,15136.00
2019-02-23T15:38:02.017Z,14656.00
2019-02-23T15:39:02.033Z,14496.00
2019-02-23T15:40:02.142Z,13008.00
2019-02-23T15:41:02.071Z,12792.00
2019-02-23T15:42:02.083Z,12844.00
2019-02-23T15:43:02.140Z,12688.00
2019-02-23T15:44:02.155Z,11948.00
2019-02-23T15:45:02.206Z,11780.00
2019-02-23T15:46:02.139Z,11340.00
2019-02-23T15:47:02.187Z,11100.00
2019-02-23T15:48:02.220Z,10160.00
2019-02-23T15:49:02.183Z,9360.00
2019-02-23T15:50:12.658Z,8772.00
2019-02-23T15:51:02.252Z,8824.00
2019-02-23T15:52:02.266Z,9136.00
2019-02-23T15:53:02.263Z,9748.00
2019-02-23T15:54:02.241Z,9896.00
2019-02-23T15:55:02.262Z,9644.00
2019-02-23T15:56:02.277Z,9760.00
2019-02-23T15:57:02.288Z,9728.00
2019-02-23T15:58:02.305Z,9428.00
2019-02-23T15:59:02.319Z,9112.00
2019-02-23T16:00:02.364Z,8924.00
2019-02-23T16:01:02.339Z,8740.00
2019-02-23T16:02:02.351Z,8432.00
2019-02-23T16:03:02.375Z,8004.00
2019-02-23T16:04:02.386Z,7772.00
2019-02-23T16:05:02.403Z,7392.00
2019-02-23T16:06:02.437Z,6912.00
2019-02-23T16:07:02.428Z,6492.00
2019-02-23T16:08:02.437Z,5864.00
2019-02-23T16:09:02.466Z,5500.00
2019-02-23T16:10:02.462Z,5544.00
2019-02-23T16:11:02.474Z,5560.00
2019-02-23T16:12:02.487Z,5708.00
2019-02-23T16:13:02.491Z,5744.00
2019-02-23T16:14:02.522Z,5472.00
2019-02-23T16:15:02.531Z,5136.00
2019-02-23T16:16:02.539Z,4636.00
2019-02-23T16:17:02.592Z,4280.00
2019-02-23T16:18:02.572Z,3768.00
2019-02-23T16:19:02.575Z,3364.00
2019-02-23T16:20:02.588Z,3036.00
2019-02-23T16:21:02.600Z,3024.00
2019-02-23T16:22:02.612Z,3224.00
2019-02-23T16:23:02.623Z,3288.00
2019-02-23T16:24:02.646Z,3064.00
2019-02-23T16:25:02.643Z,2764.00
2019-02-23T16:26:02.658Z,2524.00
2019-02-23T16:27:02.672Z,2372.00
2019-02-23T16:28:02.684Z,2168.00
2019-02-23T16:29:02.697Z,2052.00
2019-02-23T16:30:02.704Z,2068.00
2019-02-23T16:31:02.719Z,2020.00
2019-02-23T16:32:02.731Z,1968.00
2019-02-23T16:33:02.742Z,1840.00
2019-02-23T16:34:02.753Z,1712.00
2019-02-23T16:35:02.779Z,1580.00
2019-02-23T16:36:02.769Z,1484.00
2019-02-23T16:37:02.790Z,1368.00
2019-02-23T16:38:02.823Z,1316.00
2019-02-23T16:39:02.801Z,1236.00
2019-02-23T16:40:02.828Z,1160.00
2019-02-23T16:41:02.825Z,1072.00
2019-02-23T16:42:02.867Z,964.00
2019-02-23T16:43:02.852Z,816.00
2019-02-23T16:44:02.861Z,680.00
2019-02-23T16:45:02.878Z,620.00
2019-02-23T16:46:02.887Z,572.00
2019-02-23T16:47:02.888Z,540.00
2019-02-23T16:48:02.905Z,508.00
2019-02-23T16:49:02.916Z,476.00
2019-02-23T16:50:02.933Z,440.00
2019-02-23T16:51:02.933Z,416.00
2019-02-23T16:52:02.949Z,376.00
2019-02-23T16:53:02.955Z,344.00
2019-02-23T16:54:02.975Z,320.00
2019-02-23T16:55:02.977Z,296.00
2019-02-23T16:56:02.991Z,272.00
2019-02-23T16:57:03.009Z,256.00
2019-02-23T16:58:02.996Z,236.00
2019-02-23T16:59:03.012Z,216.00
2019-02-23T17:00:03.019Z,200.00
2019-02-23T17:01:04.282Z,184.00
2019-02-23T17:02:03.038Z,168.00
2019-02-23T17:03:03.046Z,148.00
2019-02-23T17:04:03.058Z,132.00
2019-02-23T17:05:03.068Z,116.00
2019-02-23T17:06:03.117Z,104.00
2019-02-23T17:07:03.084Z,92.00
2019-02-23T17:08:03.090Z,84.00
2019-02-23T17:09:03.117Z,72.00
2019-02-23T17:10:03.105Z,64.00
2019-02-23T17:11:03.114Z,52.00
2019-02-23T17:12:03.169Z,48.00
2019-02-23T17:13:03.141Z,40.00
2019-02-23T17:14:03.143Z,36.00
2019-02-23T17:15:03.162Z,28.00
2019-02-23T17:16:03.164Z,24.00
2019-02-23T17:17:03.167Z,24.00
2019-02-23T17:23:10.466Z,8.00
2019-02-23T17:24:10.389Z,4.00
2019-02-23T17:25:10.388Z,4.00
2019-02-23T17:26:10.398Z,4.00
2019-02-23T17:27:10.406Z,4.00
2019-02-23T17:28:10.430Z,4.00
2019-02-23T17:29:10.429Z,4.00
2019-02-23T17:30:10.429Z,4.00
2019-02-23T17:31:10.438Z,4.00
2019-02-23T17:32:10.453Z,0.00
2019-02-23T17:33:10.457Z,4.00
2019-02-23T17:34:10.461Z,0.00
2019-02-23T17:35:10.475Z,4.00
2019-02-23T17:36:10.479Z,4.00
2019-02-23T17:38:16.110Z,0.00
2019-02-23T17:39:10.517Z,0.00
2019-02-23T17:40:10.509Z,0.00
2019-02-23T17:41:10.519Z,0.00
2019-02-23T17:42:10.523Z,0.00
2019-02-23T17:43:10.548Z,0.00
2019-02-23T17:44:10.540Z,0.00
2019-02-23T17:45:10.554Z,0.00
2019-02-23T17:46:10.556Z,4.00
2019-02-23T17:47:10.563Z,4.00
2019-02-23T17:48:10.571Z,0.00
2019-02-23T17:49:10.572Z,4.00
2019-02-23T17:50:10.591Z,4.00
2019-02-23T17:51:10.613Z,4.00
2019-02-23T17:52:10.607Z,4.00
2019-02-23T17:53:10.604Z,0.00
2019-02-23T17:54:10.624Z,4.00
2019-02-23T17:55:10.627Z,4.00
2019-02-23T17:56:12.596Z,0.00
2019-02-23T17:57:10.655Z,4.00
2019-02-23T17:58:10.650Z,0.00
2019-02-23T17:59:10.653Z,4.00
2019-02-23T18:00:10.666Z,4.00
2019-02-23T18:01:10.667Z,4.00
2019-02-23T18:02:10.693Z,0.00
2019-02-23T18:03:10.678Z,4.00
2019-02-23T18:04:10.688Z,0.00
2019-02-23T18:05:10.691Z,4.00
2019-02-23T18:06:10.705Z,0.00
2019-02-23T18:07:10.724Z,0.00
2019-02-23T18:08:10.714Z,4.00
2019-02-23T18:09:10.792Z,0.00
2019-02-23T18:10:10.736Z,4.00
2019-02-23T18:11:10.763Z,4.00
2019-02-23T18:12:10.746Z,0.00
2019-02-23T18:13:11.941Z,0.00
2019-02-23T18:14:10.768Z,0.00
2019-02-23T18:15:10.768Z,4.00
2019-02-23T18:16:10.779Z,0.00
2019-02-23T18:17:10.781Z,0.00
2019-02-23T18:18:10.793Z,0.00
2019-02-23T18:19:10.806Z,0.00
2019-02-23T18:20:10.813Z,0.00
2019-02-23T18:21:10.816Z,0.00
2019-02-23T18:22:10.830Z,0.00
2019-02-23T18:23:10.834Z,4.00
2019-02-23T18:24:10.833Z,4.00
2019-02-23T18:25:10.850Z,0.00
2019-02-23T18:26:10.850Z,0.00
2019-02-23T18:27:10.856Z,4.00
2019-02-23T18:28:10.865Z,0.00
2019-02-23T18:29:10.863Z,0.00
2019-02-23T18:30:13.924Z,0.00
2019-02-23T18:31:10.882Z,0.00
2019-02-23T18:32:10.889Z,0.00
2019-02-23T18:33:10.897Z,4.00
2019-02-23T18:34:10.901Z,0.00
2019-02-23T18:35:10.926Z,4.00
2019-02-23T18:36:10.920Z,0.00
2019-02-23T18:37:10.929Z,4.00
2019-02-23T18:38:10.931Z,4.00
2019-02-23T18:39:10.940Z,0.00
2019-02-23T18:40:10.940Z,0.00
2019-02-23T18:41:10.938Z,0.00
2019-02-23T18:42:10.990Z,4.00
2019-02-23T18:43:10.958Z,0.00
2019-02-23T18:44:10.979Z,4.00
2019-02-23T18:45:10.978Z,4.00
2019-02-23T18:46:10.982Z,0.00
2019-02-23T18:47:10.986Z,4.00
2019-02-23T18:48:10.991Z,4.00
2019-02-23T18:49:11.007Z,0.00
2019-02-23T18:50:11.005Z,4.00
2019-02-23T18:51:11.023Z,4.00
2019-02-23T18:52:11.021Z,0.00
2019-02-23T18:53:11.028Z,0.00
2019-02-23T18:54:11.039Z,0.00
2019-02-23T18:55:11.054Z,0.00
2019-02-23T18:56:11.047Z,0.00
2019-02-23T18:57:11.054Z,0.00
2019-02-23T18:58:11.063Z,4.00
2019-02-23T18:59:11.066Z,4.00
2019-02-23T19:00:11.080Z,4.00
2019-02-23T19:01:11.083Z,0.00
2019-02-23T19:02:11.104Z,4.00
2019-02-23T19:03:11.103Z,4.00
2019-02-23T19:04:12.309Z,0.00
2019-02-23T19:05:11.109Z,0.00
2019-02-23T19:06:11.119Z,4.00
2019-02-23T19:07:11.114Z,0.00
2019-02-23T19:08:11.132Z,0.00
2019-02-23T19:09:11.127Z,4.00
2019-02-23T19:10:11.130Z,0.00
2019-02-23T19:11:11.156Z,0.00
2019-02-23T19:12:11.152Z,4.00
2019-02-23T19:13:11.166Z,0.00
2019-02-23T19:14:11.153Z,0.00
2019-02-23T19:15:11.176Z,4.00
2019-02-23T19:17:11.194Z,0.00
2019-02-23T19:18:11.191Z,4.00
2019-02-23T19:19:11.209Z,0.00
2019-02-23T19:20:11.209Z,0.00
2019-02-23T19:21:11.204Z,4.00
2019-02-23T19:22:11.221Z,0.00
2019-02-23T19:23:11.222Z,0.00
2019-02-23T19:24:11.256Z,0.00
2019-02-23T19:25:11.256Z,0.00
2019-02-23T19:26:11.267Z,0.00
2019-02-23T19:27:11.250Z,0.00
2019-02-23T19:28:11.252Z,0.00
2019-02-23T19:29:11.257Z,0.00
2019-02-23T19:30:11.266Z,0.00
2019-02-23T19:31:11.270Z,0.00
2019-02-23T19:32:11.274Z,0.00
2019-02-23T19:33:11.277Z,0.00
2019-02-23T19:34:11.293Z,0.00
2019-02-23T19:35:11.287Z,0.00
2019-02-23T19:36:11.308Z,0.00
2019-02-23T19:37:11.409Z,0.00
2019-02-23T19:38:11.314Z,0.00
2019-02-23T19:39:11.350Z,0.00
2019-02-23T19:40:11.329Z,0.00
2019-02-23T19:41:11.328Z,0.00
2019-02-23T19:42:11.329Z,0.00
2019-02-23T19:43:11.342Z,0.00
2019-02-23T19:44:11.362Z,4.00
2019-02-23T19:45:11.356Z,4.00
2019-02-23T19:46:11.363Z,0.00
2019-02-23T19:47:11.364Z,0.00
2019-02-23T19:48:11.368Z,0.00
2019-02-23T19:49:11.386Z,0.00
2019-02-23T19:50:11.380Z,0.00
2019-02-23T19:51:11.385Z,0.00
2019-02-23T19:52:11.395Z,0.00
2019-02-23T19:53:11.392Z,0.00
2019-02-23T19:54:11.404Z,0.00
2019-02-23T19:55:11.407Z,0.00
2019-02-23T19:56:11.415Z,4.00
2019-02-23T19:57:11.421Z,0.00
2019-02-23T19:58:11.440Z,0.00
2019-02-23T19:59:11.474Z,0.00
2019-02-23T20:00:11.450Z,0.00
2019-02-23T20:01:11.442Z,0.00
2019-02-23T20:02:11.460Z,0.00
2019-02-23T20:03:11.459Z,0.00
2019-02-23T20:04:11.461Z,0.00
2019-02-23T20:05:11.474Z,0.00
2019-02-23T20:06:11.481Z,0.00
2019-02-23T20:07:11.467Z,0.00
2019-02-23T20:08:11.567Z,0.00
2019-02-23T20:09:11.476Z,0.00
2019-02-23T20:10:11.500Z,4.00
2019-02-23T20:12:11.498Z,4.00
2019-02-23T20:13:11.511Z,0.00
2019-02-23T20:14:11.519Z,0.00
2019-02-23T20:15:11.522Z,0.00
2019-02-23T20:16:11.540Z,0.00
2019-02-23T20:17:11.531Z,0.00
2019-02-23T20:18:11.559Z,4.00
2019-02-23T20:19:11.556Z,0.00
2019-02-23T20:20:11.588Z,0.00
2019-02-23T20:21:11.551Z,0.00
2019-02-23T20:22:11.551Z,0.00
2019-02-23T20:23:11.558Z,0.00
2019-02-23T20:24:11.570Z,0.00
2019-02-23T20:25:11.573Z,4.00
2019-02-23T20:26:11.572Z,0.00
2019-02-23T20:27:11.583Z,0.00
2019-02-23T20:28:11.592Z,0.00
2019-02-23T20:29:11.599Z,0.00
2019-02-23T20:30:11.630Z,0.00
2019-02-23T20:31:11.637Z,0.00
2019-02-23T20:32:11.619Z,0.00
2019-02-23T20:33:11.617Z,0.00
2019-02-23T20:34:11.610Z,0.00
2019-02-23T20:35:11.657Z,0.00
2019-02-23T20:36:11.669Z,0.00
2019-02-23T20:37:11.634Z,0.00
2019-02-23T20:38:11.654Z,0.00
2019-02-23T20:39:11.644Z,0.00
2019-02-23T20:40:11.662Z,0.00
2019-02-23T20:41:11.702Z,0.00
2019-02-23T20:42:11.668Z,0.00
2019-02-23T20:43:11.691Z,4.00
2019-02-23T20:44:11.749Z,0.00
2019-02-23T20:45:11.699Z,0.00
2019-02-23T20:46:11.685Z,0.00
2019-02-23T20:47:11.848Z,0.00
2019-02-23T20:48:11.685Z,0.00
2019-02-23T20:49:11.696Z,0.00
2019-02-23T20:50:11.697Z,0.00
2019-02-23T20:51:11.712Z,0.00
2019-02-23T20:52:11.707Z,0.00
2019-02-23T20:53:11.720Z,0.00
2019-02-23T20:54:11.735Z,0.00
2019-02-23T20:55:11.723Z,0.00
2019-02-23T20:56:11.732Z,0.00
2019-02-23T20:57:13.965Z,0.00
2019-02-23T20:58:11.752Z,0.00
2019-02-23T20:59:11.755Z,0.00
2019-02-23T21:00:11.750Z,0.00
2019-02-23T21:01:11.754Z,0.00
2019-02-23T21:02:11.778Z,0.00
2019-02-23T21:03:11.816Z,0.00
2019-02-23T21:04:11.767Z,0.00
2019-02-23T21:05:11.795Z,0.00
2019-02-23T21:06:11.778Z,0.00
2019-02-23T21:07:11.778Z,0.00
2019-02-23T21:08:11.788Z,0.00
2019-02-23T21:09:11.807Z,0.00
2019-02-23T21:11:11.802Z,0.00
2019-02-23T21:12:11.813Z,0.00
2019-02-23T21:13:11.808Z,0.00
2019-02-23T21:14:11.844Z,0.00
2019-02-23T21:15:11.818Z,0.00
2019-02-23T21:16:11.826Z,0.00
2019-02-23T21:17:11.841Z,0.00
2019-02-23T21:18:11.849Z,4.00
2019-02-23T21:19:11.837Z,0.00
2019-02-23T21:20:11.850Z,0.00
2019-02-23T21:21:12.669Z,0.00
2019-02-23T21:22:11.871Z,0.00
2019-02-23T21:23:11.859Z,0.00
2019-02-23T21:24:11.870Z,0.00
2019-02-23T21:25:11.878Z,0.00
2019-02-23T21:26:11.885Z,0.00
2019-02-23T21:27:13.176Z,0.00
2019-02-23T21:28:11.886Z,0.00
2019-02-23T21:29:11.902Z,0.00
2019-02-23T21:30:11.902Z,4.00
2019-02-23T21:31:11.899Z,0.00
2019-02-23T21:32:11.904Z,0.00
2019-02-23T21:33:12.048Z,0.00
2019-02-23T21:34:12.381Z,0.00
2019-02-23T21:35:11.925Z,0.00
2019-02-23T21:36:11.920Z,0.00
2019-02-23T21:37:12.003Z,0.00
2019-02-23T21:38:11.930Z,0.00
2019-02-23T21:39:11.934Z,0.00
2019-02-23T21:40:12.225Z,0.00
2019-02-23T21:41:12.005Z,0.00
2019-02-23T21:42:12.257Z,0.00
2019-02-23T21:43:11.958Z,0.00
2019-02-23T21:44:11.953Z,0.00
2019-02-23T21:45:11.958Z,0.00
2019-02-23T21:46:11.962Z,0.00
2019-02-23T21:47:11.975Z,0.00
2019-02-23T21:48:11.973Z,0.00
2019-02-23T21:49:11.979Z,4.00
2019-02-23T21:50:12.055Z,0.00
2019-02-23T21:51:11.994Z,0.00
2019-02-23T21:52:11.999Z,0.00
2019-02-23T21:53:12.000Z,0.00
2019-02-23T21:54:12.000Z,0.00
2019-02-23T21:55:12.012Z,0.00
2019-02-23T21:56:12.011Z,0.00
2019-02-23T21:57:12.056Z,0.00
2019-02-23T21:58:12.018Z,0.00
2019-02-23T21:59:12.016Z,0.00
2019-02-23T22:00:12.026Z,0.00
2019-02-23T22:01:12.040Z,4.00
2019-02-23T22:02:12.027Z,0.00
2019-02-23T22:03:12.041Z,0.00
2019-02-23T22:04:12.048Z,0.00
2019-02-23T22:05:12.835Z,0.00
2019-02-23T22:06:12.063Z,0.00
2019-02-23T22:07:12.062Z,0.00
2019-02-23T22:08:12.065Z,0.00
2019-02-23T22:09:12.061Z,0.00
2019-02-23T22:10:12.073Z,0.00
2019-02-23T22:11:12.104Z,0.00
2019-02-23T22:12:12.079Z,0.00
2019-02-23T22:13:12.089Z,0.00
2019-02-23T22:14:12.104Z,0.00
2019-02-23T22:15:12.104Z,0.00
2019-02-23T22:16:12.093Z,0.00
2019-02-23T22:17:12.101Z,0.00
2019-02-23T22:18:12.102Z,0.00
2019-02-23T22:19:12.111Z,0.00
2019-02-23T22:20:12.111Z,0.00
2019-02-23T22:21:12.119Z,0.00
2019-02-23T22:22:12.114Z,0.00
2019-02-23T22:23:12.133Z,0.00
2019-02-23T22:24:12.130Z,0.00
2019-02-23T22:25:12.135Z,0.00
2019-02-23T22:26:12.133Z,0.00
2019-02-23T22:27:12.147Z,0.00
2019-02-23T22:28:12.169Z,0.00
2019-02-23T22:29:12.141Z,0.00
2019-02-23T22:30:12.167Z,0.00
2019-02-23T22:31:12.159Z,0.00
2019-02-23T22:32:12.152Z,0.00
2019-02-23T22:33:12.188Z,0.00
2019-02-23T22:34:12.165Z,0.00
2019-02-23T22:35:12.164Z,0.00
2019-02-23T22:36:12.173Z,0.00
2019-02-23T22:37:12.175Z,0.00
2019-02-23T22:38:12.194Z,4.00
2019-02-23T22:39:12.200Z,0.00
2019-02-23T22:40:12.201Z,0.00
2019-02-23T22:41:12.196Z,0.00
2019-02-23T22:42:12.216Z,0.00
2019-02-23T22:43:12.206Z,0.00
2019-02-23T22:44:12.213Z,0.00
2019-02-23T22:45:12.222Z,0.00
2019-02-23T22:46:12.227Z,0.00
2019-02-23T22:47:12.221Z,0.00
2019-02-23T22:48:12.225Z,0.00
2019-02-23T22:49:12.235Z,4.00
2019-02-23T22:50:12.238Z,0.00
2019-02-23T22:51:12.242Z,0.00
2019-02-23T22:52:13.177Z,0.00
2019-02-23T22:53:12.258Z,0.00
2019-02-23T22:54:12.248Z,0.00
2019-02-23T22:55:12.253Z,0.00
2019-02-23T22:56:12.269Z,0.00
2019-02-23T22:57:12.262Z,0.00
2019-02-23T22:58:12.260Z,0.00
2019-02-23T22:59:12.266Z,0.00
2019-02-23T23:00:12.367Z,0.00
2019-02-23T23:01:12.287Z,0.00
2019-02-23T23:02:12.291Z,0.00
2019-02-23T23:03:12.296Z,0.00
2019-02-23T23:04:12.280Z,0.00
2019-02-23T23:05:12.287Z,0.00
2019-02-23T23:06:12.296Z,0.00
2019-02-23T23:07:12.302Z,0.00
2019-02-23T23:08:12.301Z,0.00
2019-02-23T23:09:12.311Z,0.00
2019-02-23T23:10:12.450Z,0.00
2019-02-23T23:11:12.309Z,0.00
2019-02-23T23:12:12.327Z,0.00
2019-02-23T23:13:12.329Z,0.00
2019-02-23T23:14:12.331Z,0.00
2019-02-23T23:15:12.336Z,0.00
2019-02-23T23:16:12.324Z,0.00
2019-02-23T23:17:12.332Z,0.00
2019-02-23T23:18:12.338Z,0.00
2019-02-23T23:19:12.344Z,0.00
2019-02-23T23:20:12.348Z,0.00
2019-02-23T23:21:12.345Z,0.00
2019-02-23T23:22:12.362Z,0.00
2019-02-23T23:23:12.370Z,0.00
2019-02-23T23:24:12.363Z,0.00
2019-02-23T23:25:12.367Z,0.00
2019-02-23T23:26:12.374Z,0.00
2019-02-23T23:27:12.389Z,0.00
2019-02-23T23:28:12.411Z,0.00
2019-02-23T23:29:12.407Z,0.00
2019-02-23T23:30:12.389Z,0.00
2019-02-23T23:31:12.392Z,0.00
2019-02-23T23:32:12.392Z,0.00
2019-02-23T23:33:12.399Z,0.00
2019-02-23T23:34:12.399Z,0.00
2019-02-23T23:35:12.411Z,4.00
2019-02-23T23:36:12.400Z,0.00
2019-02-23T23:37:12.412Z,0.00
2019-02-23T23:38:12.415Z,0.00
2019-02-23T23:39:12.449Z,0.00
2019-02-23T23:40:12.429Z,0.00
2019-02-23T23:41:12.437Z,4.00
2019-02-23T23:42:12.428Z,0.00
2019-02-23T23:43:12.433Z,0.00
2019-02-23T23:44:12.430Z,0.00
2019-02-23T23:45:12.436Z,0.00
2019-02-23T23:46:12.440Z,0.00
2019-02-23T23:47:12.455Z,0.00
2019-02-23T23:48:12.460Z,0.00
2019-02-23T23:49:12.459Z,0.00
2019-02-23T23:50:12.463Z,0.00
2019-02-23T23:51:12.512Z,0.00
2019-02-23T23:52:12.462Z,0.00
2019-02-23T23:53:12.465Z,0.00
2019-02-23T23:54:12.468Z,0.00
2019-02-23T23:55:12.475Z,0.00
2019-02-23T23:56:12.483Z,0.00
2019-02-23T23:57:12.489Z,0.00
2019-02-23T23:58:12.482Z,0.00
2019-02-23T23:59:12.509Z,0.00
